sensor_id;sensor_type;location;lat;lon;timestamp;pressure;altitude;pressure_sealevel;temperature;humidity
15489;BME280;7846;48.830;9.116;2022-12-20T00:00:55;98389.88;;;6.13;82.97
15489;BME280;7846;48.830;9.116;2022-12-20T00:03:21;98394.50;;;6.21;83.03
15489;BME280;7846;48.830;9.116;2022-12-20T00:05:47;98387.03;;;6.27;83.17
15489;BME280;7846;48.830;9.116;2022-12-20T00:08:13;98393.56;;;6.22;82.82
15489;BME280;7846;48.830;9.116;2022-12-20T00:10:41;98389.66;;;6.27;82.61
15489;BME280;7846;48.830;9.116;2022-12-20T00:13:08;98391.44;;;6.27;82.71
15489;BME280;7846;48.830;9.116;2022-12-20T00:15:34;98380.00;;;6.17;83.50
15489;BME280;7846;48.830;9.116;2022-12-20T00:18:01;98383.19;;;6.09;83.46
15489;BME280;7846;48.830;9.116;2022-12-20T00:20:27;98377.03;;;6.21;83.18
15489;BME280;7846;48.830;9.116;2022-12-20T00:22:53;98375.00;;;6.14;83.46
15489;BME280;7846;48.830;9.116;2022-12-20T00:25:19;98359.56;;;6.11;83.81
15489;BME280;7846;48.830;9.116;2022-12-20T00:27:48;98357.53;;;6.14;83.49
15489;BME280;7846;48.830;9.116;2022-12-20T00:30:14;98349.94;;;6.11;83.34
15489;BME280;7846;48.830;9.116;2022-12-20T00:32:40;98349.34;;;6.19;82.99
15489;BME280;7846;48.830;9.116;2022-12-20T00:35:05;98358.50;;;6.13;83.54
15489;BME280;7846;48.830;9.116;2022-12-20T00:37:31;98348.28;;;6.10;83.46
15489;BME280;7846;48.830;9.116;2022-12-20T00:39:56;98349.84;;;6.13;84.26
15489;BME280;7846;48.830;9.116;2022-12-20T00:42:22;98356.09;;;5.99;84.76
15489;BME280;7846;48.830;9.116;2022-12-20T00:44:47;98358.13;;;6.06;83.80
15489;BME280;7846;48.830;9.116;2022-12-20T00:47:13;98348.50;;;6.07;84.11
15489;BME280;7846;48.830;9.116;2022-12-20T00:49:39;98365.53;;;6.24;83.57
15489;BME280;7846;48.830;9.116;2022-12-20T00:52:05;98363.63;;;6.26;83.16
15489;BME280;7846;48.830;9.116;2022-12-20T00:54:31;98356.97;;;6.22;83.49
15489;BME280;7846;48.830;9.116;2022-12-20T00:56:56;98339.75;;;6.30;83.29
15489;BME280;7846;48.830;9.116;2022-12-20T00:59:21;98347.94;;;6.26;83.21
15489;BME280;7846;48.830;9.116;2022-12-20T01:01:48;98353.38;;;6.23;82.37
15489;BME280;7846;48.830;9.116;2022-12-20T01:04:14;98352.34;;;6.25;82.47
15489;BME280;7846;48.830;9.116;2022-12-20T01:06:39;98364.44;;;6.26;82.98
15489;BME280;7846;48.830;9.116;2022-12-20T01:09:07;98362.19;;;6.22;82.70
15489;BME280;7846;48.830;9.116;2022-12-20T01:11:34;98357.16;;;6.07;83.74
15489;BME280;7846;48.830;9.116;2022-12-20T01:14:04;98364.56;;;6.14;83.93
15489;BME280;7846;48.830;9.116;2022-12-20T01:16:34;98367.53;;;6.20;82.70
15489;BME280;7846;48.830;9.116;2022-12-20T01:19:00;98381.66;;;6.18;83.40
15489;BME280;7846;48.830;9.116;2022-12-20T01:21:27;98384.69;;;6.00;83.74
15489;BME280;7846;48.830;9.116;2022-12-20T01:23:53;98380.94;;;6.04;83.55
15489;BME280;7846;48.830;9.116;2022-12-20T01:26:21;98369.75;;;6.02;83.80
15489;BME280;7846;48.830;9.116;2022-12-20T01:28:51;98371.06;;;6.08;83.80
15489;BME280;7846;48.830;9.116;2022-12-20T01:31:18;98368.97;;;6.13;84.11
15489;BME280;7846;48.830;9.116;2022-12-20T01:33:46;98362.69;;;6.16;83.52
15489;BME280;7846;48.830;9.116;2022-12-20T01:36:14;98351.97;;;6.19;82.99
15489;BME280;7846;48.830;9.116;2022-12-20T01:38:40;98350.66;;;6.13;83.93
15489;BME280;7846;48.830;9.116;2022-12-20T01:41:06;98352.66;;;6.10;83.32
15489;BME280;7846;48.830;9.116;2022-12-20T01:44:50;98349.34;;;6.19;82.83
15489;BME280;7846;48.830;9.116;2022-12-20T01:46:50;98355.28;;;6.10;83.64
15489;BME280;7846;48.830;9.116;2022-12-20T01:49:20;98341.16;;;6.12;84.20
15489;BME280;7846;48.830;9.116;2022-12-20T01:54:22;98354.56;;;6.19;83.70
15489;BME280;7846;48.830;9.116;2022-12-20T01:56:56;98355.78;;;6.26;83.53
15489;BME280;7846;48.830;9.116;2022-12-20T01:59:23;98357.09;;;6.20;83.33
15489;BME280;7846;48.830;9.116;2022-12-20T02:01:50;98338.53;;;6.01;83.65
15489;BME280;7846;48.830;9.116;2022-12-20T02:04:15;98330.34;;;6.05;84.16
15489;BME280;7846;48.830;9.116;2022-12-20T02:06:41;98326.28;;;6.01;84.03
15489;BME280;7846;48.830;9.116;2022-12-20T02:09:06;98327.22;;;6.00;84.67
15489;BME280;7846;48.830;9.116;2022-12-20T02:11:45;98320.50;;;6.09;84.49
15489;BME280;7846;48.830;9.116;2022-12-20T02:23:04;98322.63;;;6.15;84.08
15489;BME280;7846;48.830;9.116;2022-12-20T02:25:43;98315.28;;;6.20;83.58
15489;BME280;7846;48.830;9.116;2022-12-20T02:31:03;98312.50;;;5.99;83.80
15489;BME280;7846;48.830;9.116;2022-12-20T02:33:29;98307.63;;;5.95;84.49
15489;BME280;7846;48.830;9.116;2022-12-20T02:35:55;98309.13;;;5.86;85.04
15489;BME280;7846;48.830;9.116;2022-12-20T02:38:33;98309.88;;;5.99;84.84
15489;BME280;7846;48.830;9.116;2022-12-20T02:43:50;98288.53;;;6.05;84.40
15489;BME280;7846;48.830;9.116;2022-12-20T02:46:37;98295.28;;;6.08;84.22
15489;BME280;7846;48.830;9.116;2022-12-20T02:49:08;98299.06;;;5.93;83.64
15489;BME280;7846;48.830;9.116;2022-12-20T02:51:36;98304.38;;;5.80;85.90
15489;BME280;7846;48.830;9.116;2022-12-20T02:54:02;98301.94;;;6.01;85.30
15489;BME280;7846;48.830;9.116;2022-12-20T02:56:36;98279.59;;;6.08;84.20
15489;BME280;7846;48.830;9.116;2022-12-20T02:59:25;98276.41;;;6.04;83.78
15489;BME280;7846;48.830;9.116;2022-12-20T03:01:54;98276.88;;;6.10;83.88
15489;BME280;7846;48.830;9.116;2022-12-20T03:04:23;98279.03;;;6.16;83.53
15489;BME280;7846;48.830;9.116;2022-12-20T03:07:01;98279.59;;;5.97;85.26
15489;BME280;7846;48.830;9.116;2022-12-20T03:09:32;98265.06;;;5.81;85.50
15489;BME280;7846;48.830;9.116;2022-12-20T03:11:58;98269.50;;;5.92;85.50
15489;BME280;7846;48.830;9.116;2022-12-20T03:14:24;98263.81;;;6.10;85.62
15489;BME280;7846;48.830;9.116;2022-12-20T03:16:50;98280.19;;;6.12;83.89
15489;BME280;7846;48.830;9.116;2022-12-20T03:19:16;98278.31;;;6.14;84.40
15489;BME280;7846;48.830;9.116;2022-12-20T03:21:41;98278.44;;;6.23;84.54
15489;BME280;7846;48.830;9.116;2022-12-20T03:24:07;98256.09;;;6.08;84.07
15489;BME280;7846;48.830;9.116;2022-12-20T03:26:32;98262.03;;;6.21;84.49
15489;BME280;7846;48.830;9.116;2022-12-20T03:28:57;98252.31;;;6.23;84.49
15489;BME280;7846;48.830;9.116;2022-12-20T03:31:24;98245.16;;;6.14;84.43
15489;BME280;7846;48.830;9.116;2022-12-20T03:33:50;98240.28;;;6.32;84.27
15489;BME280;7846;48.830;9.116;2022-12-20T03:36:16;98235.78;;;6.12;84.08
15489;BME280;7846;48.830;9.116;2022-12-20T03:38:41;98259.78;;;6.28;84.74
15489;BME280;7846;48.830;9.116;2022-12-20T03:41:07;98261.22;;;6.32;83.71
15489;BME280;7846;48.830;9.116;2022-12-20T03:43:32;98258.22;;;6.37;83.24
15489;BME280;7846;48.830;9.116;2022-12-20T03:45:58;98266.06;;;6.37;83.66
15489;BME280;7846;48.830;9.116;2022-12-20T03:48:23;98267.63;;;6.39;84.00
15489;BME280;7846;48.830;9.116;2022-12-20T03:50:48;98254.31;;;6.42;83.54
15489;BME280;7846;48.830;9.116;2022-12-20T03:53:14;98255.38;;;6.40;84.18
15489;BME280;7846;48.830;9.116;2022-12-20T03:55:39;98245.03;;;6.49;83.50
15489;BME280;7846;48.830;9.116;2022-12-20T03:58:04;98246.34;;;6.44;83.61
15489;BME280;7846;48.830;9.116;2022-12-20T04:00:30;98243.38;;;6.37;83.99
15489;BME280;7846;48.830;9.116;2022-12-20T04:02:57;98234.59;;;6.27;84.35
15489;BME280;7846;48.830;9.116;2022-12-20T04:05:23;98229.84;;;6.21;84.51
15489;BME280;7846;48.830;9.116;2022-12-20T04:07:48;98231.63;;;6.32;84.08
15489;BME280;7846;48.830;9.116;2022-12-20T04:10:15;98236.97;;;6.30;84.23
15489;BME280;7846;48.830;9.116;2022-12-20T04:12:40;98241.00;;;6.23;84.00
15489;BME280;7846;48.830;9.116;2022-12-20T04:15:06;98224.97;;;6.39;84.55
15489;BME280;7846;48.830;9.116;2022-12-20T04:17:32;98223.78;;;6.20;84.21
15489;BME280;7846;48.830;9.116;2022-12-20T04:19:58;98228.66;;;6.36;83.61
15489;BME280;7846;48.830;9.116;2022-12-20T04:22:46;98228.06;;;6.33;83.81
15489;BME280;7846;48.830;9.116;2022-12-20T04:25:12;98233.19;;;6.34;84.81
15489;BME280;7846;48.830;9.116;2022-12-20T04:27:37;98227.34;;;6.30;83.47
15489;BME280;7846;48.830;9.116;2022-12-20T04:30:03;98234.47;;;6.28;84.68
15489;BME280;7846;48.830;9.116;2022-12-20T04:32:28;98236.34;;;6.38;83.82
15489;BME280;7846;48.830;9.116;2022-12-20T04:34:53;98246.34;;;6.44;83.98
15489;BME280;7846;48.830;9.116;2022-12-20T04:37:19;98226.84;;;6.48;83.51
15489;BME280;7846;48.830;9.116;2022-12-20T04:39:44;98226.47;;;6.52;83.52
15489;BME280;7846;48.830;9.116;2022-12-20T04:42:10;98223.53;;;6.46;83.72
15489;BME280;7846;48.830;9.116;2022-12-20T04:44:35;98223.00;;;6.63;83.25
15489;BME280;7846;48.830;9.116;2022-12-20T04:47:01;98218.66;;;6.85;81.93
15489;BME280;7846;48.830;9.116;2022-12-20T04:49:26;98204.06;;;6.71;82.85
15489;BME280;7846;48.830;9.116;2022-12-20T04:51:51;98202.34;;;6.60;83.35
15489;BME280;7846;48.830;9.116;2022-12-20T04:54:18;98206.00;;;6.69;83.16
15489;BME280;7846;48.830;9.116;2022-12-20T04:56:43;98199.44;;;6.74;82.33
15489;BME280;7846;48.830;9.116;2022-12-20T04:59:09;98204.78;;;6.73;82.13
15489;BME280;7846;48.830;9.116;2022-12-20T05:01:35;98202.72;;;6.88;81.73
15489;BME280;7846;48.830;9.116;2022-12-20T05:04:01;98204.78;;;6.73;82.16
15489;BME280;7846;48.830;9.116;2022-12-20T05:06:27;98202.88;;;6.86;81.74
15489;BME280;7846;48.830;9.116;2022-12-20T05:08:52;98200.72;;;6.80;81.04
15489;BME280;7846;48.830;9.116;2022-12-20T05:11:19;98193.22;;;6.87;81.48
15489;BME280;7846;48.830;9.116;2022-12-20T05:13:44;98201.00;;;6.66;81.81
15489;BME280;7846;48.830;9.116;2022-12-20T05:16:10;98189.63;;;6.55;82.88
15489;BME280;7846;48.830;9.116;2022-12-20T05:18:35;98183.19;;;6.60;81.98
15489;BME280;7846;48.830;9.116;2022-12-20T05:21:01;98189.69;;;6.76;81.40
15489;BME280;7846;48.830;9.116;2022-12-20T05:23:46;98183.66;;;6.65;81.78
15489;BME280;7846;48.830;9.116;2022-12-20T05:26:33;98191.38;;;6.66;82.06
15489;BME280;7846;48.830;9.116;2022-12-20T05:28:58;98183.66;;;6.65;82.03
15489;BME280;7846;48.830;9.116;2022-12-20T05:31:24;98177.56;;;6.75;81.89
15489;BME280;7846;48.830;9.116;2022-12-20T05:33:49;98182.41;;;6.80;82.21
15489;BME280;7846;48.830;9.116;2022-12-20T05:36:14;98187.00;;;6.55;84.09
15489;BME280;7846;48.830;9.116;2022-12-20T05:38:40;98174.66;;;6.58;83.39
15489;BME280;7846;48.830;9.116;2022-12-20T05:41:06;98182.59;;;6.56;83.18
15489;BME280;7846;48.830;9.116;2022-12-20T05:43:34;98169.28;;;6.59;83.85
15489;BME280;7846;48.830;9.116;2022-12-20T05:46:00;98162.53;;;6.57;83.77
15489;BME280;7846;48.830;9.116;2022-12-20T05:48:25;98161.03;;;6.43;83.78
15489;BME280;7846;48.830;9.116;2022-12-20T05:50:50;98156.63;;;6.43;84.18
15489;BME280;7846;48.830;9.116;2022-12-20T05:53:16;98149.50;;;6.45;84.93
15489;BME280;7846;48.830;9.116;2022-12-20T05:55:47;98156.69;;;6.64;83.69
15489;BME280;7846;48.830;9.116;2022-12-20T05:58:13;98148.91;;;6.42;84.35
15489;BME280;7846;48.830;9.116;2022-12-20T06:00:40;98155.16;;;6.50;84.38
15489;BME280;7846;48.830;9.116;2022-12-20T06:03:07;98151.16;;;6.46;84.09
15489;BME280;7846;48.830;9.116;2022-12-20T06:05:35;98150.63;;;6.52;84.03
15489;BME280;7846;48.830;9.116;2022-12-20T06:08:02;98152.81;;;6.47;83.92
15489;BME280;7846;48.830;9.116;2022-12-20T06:10:27;98160.38;;;6.62;83.38
15489;BME280;7846;48.830;9.116;2022-12-20T06:12:53;98155.63;;;6.55;83.73
15489;BME280;7846;48.830;9.116;2022-12-20T06:15:18;98161.09;;;6.52;83.55
15489;BME280;7846;48.830;9.116;2022-12-20T06:17:43;98152.06;;;6.57;83.98
15489;BME280;7846;48.830;9.116;2022-12-20T06:20:10;98156.69;;;6.64;83.77
15489;BME280;7846;48.830;9.116;2022-12-20T06:22:36;98156.06;;;6.72;83.07
15489;BME280;7846;48.830;9.116;2022-12-20T06:25:01;98169.00;;;6.73;82.72
15489;BME280;7846;48.830;9.116;2022-12-20T06:27:27;98160.13;;;6.65;83.58
15489;BME280;7846;48.830;9.116;2022-12-20T06:29:52;98156.50;;;6.77;82.42
15489;BME280;7846;48.830;9.116;2022-12-20T06:32:19;98169.59;;;6.77;82.16
15489;BME280;7846;48.830;9.116;2022-12-20T06:34:44;98164.78;;;6.82;82.81
15489;BME280;7846;48.830;9.116;2022-12-20T06:37:10;98168.97;;;6.85;82.64
15489;BME280;7846;48.830;9.116;2022-12-20T06:39:35;98170.31;;;6.79;82.66
15489;BME280;7846;48.830;9.116;2022-12-20T06:42:01;98177.63;;;6.85;82.11
15489;BME280;7846;48.830;9.116;2022-12-20T06:44:26;98180.84;;;6.89;82.82
15489;BME280;7846;48.830;9.116;2022-12-20T06:46:51;98170.03;;;6.82;82.69
15489;BME280;7846;48.830;9.116;2022-12-20T06:49:17;98176.31;;;6.91;82.70
15489;BME280;7846;48.830;9.116;2022-12-20T06:51:42;98176.47;;;6.78;82.27
15489;BME280;7846;48.830;9.116;2022-12-20T06:54:08;98176.44;;;6.89;82.74
15489;BME280;7846;48.830;9.116;2022-12-20T06:56:33;98174.38;;;6.93;81.80
15489;BME280;7846;48.830;9.116;2022-12-20T06:59:00;98169.13;;;6.72;83.36
15489;BME280;7846;48.830;9.116;2022-12-20T07:01:27;98166.97;;;6.77;82.86
15489;BME280;7846;48.830;9.116;2022-12-20T07:03:52;98164.59;;;6.74;82.50
15489;BME280;7846;48.830;9.116;2022-12-20T07:06:18;98169.25;;;6.70;82.80
15489;BME280;7846;48.830;9.116;2022-12-20T07:08:43;98169.41;;;6.58;84.01
15489;BME280;7846;48.830;9.116;2022-12-20T07:11:09;98176.25;;;6.70;83.66
15489;BME280;7846;48.830;9.116;2022-12-20T07:13:34;98162.41;;;6.58;83.24
15489;BME280;7846;48.830;9.116;2022-12-20T07:16:01;98175.88;;;6.74;83.89
15489;BME280;7846;48.830;9.116;2022-12-20T07:18:27;98177.28;;;6.78;83.08
15489;BME280;7846;48.830;9.116;2022-12-20T07:20:52;98172.97;;;6.68;83.15
15489;BME280;7846;48.830;9.116;2022-12-20T07:23:18;98164.09;;;6.80;83.41
15489;BME280;7846;48.830;9.116;2022-12-20T07:25:52;98169.16;;;6.93;82.69
15489;BME280;7846;48.830;9.116;2022-12-20T07:28:18;98159.97;;;6.98;82.12
15489;BME280;7846;48.830;9.116;2022-12-20T07:30:47;98154.63;;;7.00;81.77
15489;BME280;7846;48.830;9.116;2022-12-20T07:33:16;98161.72;;;7.09;81.35
15489;BME280;7846;48.830;9.116;2022-12-20T07:35:42;98160.19;;;7.07;81.42
15489;BME280;7846;48.830;9.116;2022-12-20T07:38:10;98157.25;;;7.21;81.46
15489;BME280;7846;48.830;9.116;2022-12-20T07:40:35;98167.41;;;7.35;80.62
15489;BME280;7846;48.830;9.116;2022-12-20T07:43:00;98157.38;;;7.40;79.87
15489;BME280;7846;48.830;9.116;2022-12-20T07:45:26;98164.53;;;7.38;80.23
15489;BME280;7846;48.830;9.116;2022-12-20T07:47:53;98154.09;;;7.48;79.87
15489;BME280;7846;48.830;9.116;2022-12-20T07:50:21;98158.00;;;7.54;79.25
15489;BME280;7846;48.830;9.116;2022-12-20T07:52:49;98159.25;;;7.59;79.23
15489;BME280;7846;48.830;9.116;2022-12-20T07:55:15;98167.25;;;7.58;79.17
15489;BME280;7846;48.830;9.116;2022-12-20T07:57:44;98151.47;;;7.79;78.45
15489;BME280;7846;48.830;9.116;2022-12-20T08:00:12;98156.88;;;7.77;77.98
15489;BME280;7846;48.830;9.116;2022-12-20T08:02:42;98162.09;;;7.77;77.87
15489;BME280;7846;48.830;9.116;2022-12-20T08:05:09;98164.31;;;7.82;78.31
15489;BME280;7846;48.830;9.116;2022-12-20T08:07:39;98173.50;;;7.66;78.72
15489;BME280;7846;48.830;9.116;2022-12-20T08:10:06;98159.22;;;7.80;78.18
15489;BME280;7846;48.830;9.116;2022-12-20T08:12:32;98158.25;;;7.71;78.68
15489;BME280;7846;48.830;9.116;2022-12-20T08:14:58;98158.41;;;7.80;77.98
15489;BME280;7846;48.830;9.116;2022-12-20T08:17:24;98156.78;;;7.88;77.96
15489;BME280;7846;48.830;9.116;2022-12-20T08:19:49;98153.09;;;8.00;77.44
15489;BME280;7846;48.830;9.116;2022-12-20T08:22:17;98136.84;;;8.07;77.22
15489;BME280;7846;48.830;9.116;2022-12-20T08:24:43;98137.91;;;7.94;77.12
15489;BME280;7846;48.830;9.116;2022-12-20T08:27:09;98137.56;;;8.09;76.97
15489;BME280;7846;48.830;9.116;2022-12-20T08:29:34;98126.81;;;8.21;76.75
15489;BME280;7846;48.830;9.116;2022-12-20T08:32:00;98123.09;;;8.24;76.50
15489;BME280;7846;48.830;9.116;2022-12-20T08:34:25;98122.13;;;8.25;76.33
15489;BME280;7846;48.830;9.116;2022-12-20T08:36:50;98125.72;;;8.24;76.23
15489;BME280;7846;48.830;9.116;2022-12-20T08:39:16;98119.88;;;8.11;76.55
15489;BME280;7846;48.830;9.116;2022-12-20T08:41:42;98115.06;;;8.16;76.71
15489;BME280;7846;48.830;9.116;2022-12-20T08:44:08;98116.75;;;8.36;75.98
15489;BME280;7846;48.830;9.116;2022-12-20T08:46:35;98113.84;;;8.20;76.10
15489;BME280;7846;48.830;9.116;2022-12-20T08:49:02;98116.38;;;8.41;75.90
15489;BME280;7846;48.830;9.116;2022-12-20T08:51:27;98119.44;;;8.46;75.57
15489;BME280;7846;48.830;9.116;2022-12-20T08:53:53;98111.84;;;8.62;75.32
15489;BME280;7846;48.830;9.116;2022-12-20T08:56:18;98106.59;;;8.72;75.00
15489;BME280;7846;48.830;9.116;2022-12-20T08:58:45;98105.22;;;8.87;74.18
15489;BME280;7846;48.830;9.116;2022-12-20T09:01:17;98099.09;;;8.96;73.71
15489;BME280;7846;48.830;9.116;2022-12-20T09:03:43;98096.75;;;8.93;73.71
15489;BME280;7846;48.830;9.116;2022-12-20T09:06:13;98102.28;;;9.10;73.38
15489;BME280;7846;48.830;9.116;2022-12-20T09:08:39;98103.94;;;9.11;72.72
15489;BME280;7846;48.830;9.116;2022-12-20T09:11:10;98121.63;;;9.09;72.64
15489;BME280;7846;48.830;9.116;2022-12-20T09:13:37;98103.94;;;9.11;72.53
15489;BME280;7846;48.830;9.116;2022-12-20T09:16:05;98100.59;;;9.18;72.41
15489;BME280;7846;48.830;9.116;2022-12-20T09:18:31;98096.03;;;9.20;72.43
15489;BME280;7846;48.830;9.116;2022-12-20T09:21:01;98094.75;;;9.34;72.37
15489;BME280;7846;48.830;9.116;2022-12-20T09:23:28;98101.06;;;9.51;71.77
15489;BME280;7846;48.830;9.116;2022-12-20T09:25:55;98094.41;;;9.57;71.25
15489;BME280;7846;48.830;9.116;2022-12-20T09:28:25;98088.91;;;9.50;71.48
15489;BME280;7846;48.830;9.116;2022-12-20T09:30:51;98101.31;;;9.58;71.21
15489;BME280;7846;48.830;9.116;2022-12-20T09:33:17;98099.06;;;9.63;70.90
15489;BME280;7846;48.830;9.116;2022-12-20T09:35:45;98107.03;;;9.81;70.85
15489;BME280;7846;48.830;9.116;2022-12-20T09:38:11;98108.63;;;9.64;70.63
15489;BME280;7846;48.830;9.116;2022-12-20T09:40:36;98089.34;;;9.83;70.79
15489;BME280;7846;48.830;9.116;2022-12-20T09:43:03;98097.03;;;9.94;70.91
15489;BME280;7846;48.830;9.116;2022-12-20T09:45:34;98091.13;;;10.10;70.64
15489;BME280;7846;48.830;9.116;2022-12-20T09:48:00;98077.50;;;10.14;69.62
15489;BME280;7846;48.830;9.116;2022-12-20T09:50:40;98076.25;;;10.18;69.60
15489;BME280;7846;48.830;9.116;2022-12-20T09:54:06;98074.31;;;10.21;69.91
15489;BME280;7846;48.830;9.116;2022-12-20T09:56:26;98061.50;;;10.35;69.80
15489;BME280;7846;48.830;9.116;2022-12-20T09:59:01;98062.59;;;10.33;69.08
15489;BME280;7846;48.830;9.116;2022-12-20T10:01:28;98064.19;;;10.44;69.15
15489;BME280;7846;48.830;9.116;2022-12-20T10:03:56;98060.63;;;10.53;68.96
15489;BME280;7846;48.830;9.116;2022-12-20T10:08:58;98055.38;;;10.53;68.66
15489;BME280;7846;48.830;9.116;2022-12-20T10:14:44;98055.72;;;10.50;69.54
15489;BME280;7846;48.830;9.116;2022-12-20T10:20:06;98057.72;;;10.74;68.05
15489;BME280;7846;48.830;9.116;2022-12-20T10:22:53;98053.03;;;10.68;67.45
15489;BME280;7846;48.830;9.116;2022-12-20T10:25:22;98064.19;;;10.44;67.97
15489;BME280;7846;48.830;9.116;2022-12-20T10:27:50;98052.22;;;10.67;67.86
15489;BME280;7846;48.830;9.116;2022-12-20T10:30:21;98056.53;;;10.68;67.69
15489;BME280;7846;48.830;9.116;2022-12-20T10:32:49;98060.97;;;10.22;68.36
15489;BME280;7846;48.830;9.116;2022-12-20T10:35:57;98056.44;;;10.60;67.85
15489;BME280;7846;48.830;9.116;2022-12-20T10:38:12;98058.28;;;10.85;67.37
15489;BME280;7846;48.830;9.116;2022-12-20T10:43:17;98032.38;;;10.99;67.08
15489;BME280;7846;48.830;9.116;2022-12-20T10:45:52;98031.81;;;10.87;67.60
15489;BME280;7846;48.830;9.116;2022-12-20T10:51:12;98032.59;;;10.79;66.89
15489;BME280;7846;48.830;9.116;2022-12-20T10:53:58;98032.38;;;10.99;66.85
15489;BME280;7846;48.830;9.116;2022-12-20T10:56:28;98024.50;;;10.99;67.11
15489;BME280;7846;48.830;9.116;2022-12-20T11:01:46;98016.19;;;10.94;67.38
15489;BME280;7846;48.830;9.116;2022-12-20T11:04:34;98011.84;;;11.02;67.22
15489;BME280;7846;48.830;9.116;2022-12-20T11:07:07;98016.13;;;11.03;67.74
15489;BME280;7846;48.830;9.116;2022-12-20T11:09:53;98015.59;;;11.26;66.70
15489;BME280;7846;48.830;9.116;2022-12-20T11:12:19;98017.41;;;11.25;67.07
15489;BME280;7846;48.830;9.116;2022-12-20T11:14:46;98015.06;;;10.70;67.58
15489;BME280;7846;48.830;9.116;2022-12-20T11:17:24;98004.53;;;10.96;67.30
15489;BME280;7846;48.830;9.116;2022-12-20T11:20:59;98006.66;;;10.93;66.42
15489;BME280;7846;48.830;9.116;2022-12-20T11:32:20;97994.38;;;11.78;65.36
15489;BME280;7846;48.830;9.116;2022-12-20T11:35:36;97993.16;;;11.64;65.88
15489;BME280;7846;48.830;9.116;2022-12-20T11:40:49;97973.16;;;11.45;66.21
15489;BME280;7846;48.830;9.116;2022-12-20T11:43:29;97966.19;;;11.28;66.75
15489;BME280;7846;48.830;9.116;2022-12-20T11:46:23;97949.72;;;11.34;66.90
15489;BME280;7846;48.830;9.116;2022-12-20T11:49:20;97948.00;;;11.51;66.34
15489;BME280;7846;48.830;9.116;2022-12-20T11:52:03;97947.53;;;11.63;66.21
15489;BME280;7846;48.830;9.116;2022-12-20T11:54:35;97941.59;;;11.61;66.46
15489;BME280;7846;48.830;9.116;2022-12-20T11:57:10;97927.41;;;11.46;67.05
15489;BME280;7846;48.830;9.116;2022-12-20T11:59:47;97934.22;;;11.31;66.55
15489;BME280;7846;48.830;9.116;2022-12-20T12:02:26;97949.50;;;11.53;66.19
15489;BME280;7846;48.830;9.116;2022-12-20T12:05:00;97946.88;;;11.53;66.36
15489;BME280;7846;48.830;9.116;2022-12-20T12:07:30;97957.94;;;11.65;66.07
15489;BME280;7846;48.830;9.116;2022-12-20T12:10:16;97963.19;;;11.65;65.40
15489;BME280;7846;48.830;9.116;2022-12-20T12:12:45;97954.81;;;11.70;65.29
15489;BME280;7846;48.830;9.116;2022-12-20T12:17:57;97938.81;;;11.21;67.03
15489;BME280;7846;48.830;9.116;2022-12-20T12:23:25;97924.09;;;11.44;66.42
15489;BME280;7846;48.830;9.116;2022-12-20T12:25:51;97911.81;;;11.27;66.75
15489;BME280;7846;48.830;9.116;2022-12-20T12:28:18;97920.66;;;11.60;65.86
15489;BME280;7846;48.830;9.116;2022-12-20T12:30:49;97920.34;;;11.71;65.97
15489;BME280;7846;48.830;9.116;2022-12-20T12:33:20;97916.28;;;11.85;65.25
15489;BME280;7846;48.830;9.116;2022-12-20T12:43:50;97919.75;;;11.94;64.07
15489;BME280;7846;48.830;9.116;2022-12-20T12:46:27;97915.16;;;11.96;64.52
15489;BME280;7846;48.830;9.116;2022-12-20T12:48:58;97915.16;;;11.96;64.09
15489;BME280;7846;48.830;9.116;2022-12-20T12:51:31;97913.16;;;11.90;63.66
15489;BME280;7846;48.830;9.116;2022-12-20T12:54:29;97897.75;;;11.52;64.82
15489;BME280;7846;48.830;9.116;2022-12-20T12:57:00;97882.91;;;11.51;65.43
15489;BME280;7846;48.830;9.116;2022-12-20T13:04:30;97863.88;;;11.23;66.15
15489;BME280;7846;48.830;9.116;2022-12-20T13:09:59;97860.13;;;11.26;66.70
15489;BME280;7846;48.830;9.116;2022-12-20T13:17:48;97866.56;;;11.31;66.26
15489;BME280;7846;48.830;9.116;2022-12-20T13:20:23;97868.09;;;11.42;65.57
15489;BME280;7846;48.830;9.116;2022-12-20T13:25:38;97880.97;;;11.53;65.57
15489;BME280;7846;48.830;9.116;2022-12-20T13:33:48;97875.50;;;11.47;66.03
15489;BME280;7846;48.830;9.116;2022-12-20T13:36:36;97870.06;;;11.48;65.97
15489;BME280;7846;48.830;9.116;2022-12-20T13:42:07;97856.84;;;11.24;66.53
15489;BME280;7846;48.830;9.116;2022-12-20T13:44:45;97864.75;;;11.24;66.26
15489;BME280;7846;48.830;9.116;2022-12-20T13:47:25;97854.63;;;11.03;66.73
15489;BME280;7846;48.830;9.116;2022-12-20T13:49:52;97850.78;;;10.89;67.51
15489;BME280;7846;48.830;9.116;2022-12-20T13:52:29;97850.66;;;10.99;67.03
15489;BME280;7846;48.830;9.116;2022-12-20T13:54:58;97850.41;;;10.76;67.90
15489;BME280;7846;48.830;9.116;2022-12-20T13:57:31;97846.16;;;10.83;67.60
15489;BME280;7846;48.830;9.116;2022-12-20T14:00:00;97841.72;;;10.83;67.30
15489;BME280;7846;48.830;9.116;2022-12-20T14:02:34;97836.78;;;10.88;67.74
15489;BME280;7846;48.830;9.116;2022-12-20T14:05:04;97843.41;;;11.01;66.80
15489;BME280;7846;48.830;9.116;2022-12-20T14:07:32;97830.31;;;10.75;67.30
15489;BME280;7846;48.830;9.116;2022-12-20T14:10:00;97830.88;;;10.86;67.21
15489;BME280;7846;48.830;9.116;2022-12-20T14:12:27;97830.59;;;11.06;66.84
15489;BME280;7846;48.830;9.116;2022-12-20T14:14:53;97825.03;;;11.09;66.57
15489;BME280;7846;48.830;9.116;2022-12-20T14:17:23;97821.56;;;11.17;66.63
15489;BME280;7846;48.830;9.116;2022-12-20T14:20:16;97822.41;;;11.25;66.62
15489;BME280;7846;48.830;9.116;2022-12-20T14:22:56;97823.72;;;11.21;66.46
15489;BME280;7846;48.830;9.116;2022-12-20T14:28:36;97812.19;;;11.14;66.62
15489;BME280;7846;48.830;9.116;2022-12-20T14:31:03;97818.25;;;11.14;67.20
15489;BME280;7846;48.830;9.116;2022-12-20T14:33:39;97825.03;;;11.09;67.02
15489;BME280;7846;48.830;9.116;2022-12-20T14:38:40;97815.41;;;10.92;67.06
15489;BME280;7846;48.830;9.116;2022-12-20T14:41:33;97807.09;;;10.70;68.06
15489;BME280;7846;48.830;9.116;2022-12-20T14:44:19;97807.19;;;10.60;68.20
15489;BME280;7846;48.830;9.116;2022-12-20T14:46:49;97810.06;;;10.75;67.95
15489;BME280;7846;48.830;9.116;2022-12-20T14:49:21;97816.78;;;10.61;68.66
15489;BME280;7846;48.830;9.116;2022-12-20T14:51:48;97821.22;;;10.61;68.37
15489;BME280;7846;48.830;9.116;2022-12-20T14:54:24;97820.53;;;10.59;68.63
15489;BME280;7846;48.830;9.116;2022-12-20T14:56:51;97815.75;;;10.54;68.30
15489;BME280;7846;48.830;9.116;2022-12-20T14:59:27;97802.03;;;10.43;68.65
15489;BME280;7846;48.830;9.116;2022-12-20T15:01:54;97796.72;;;10.34;68.79